Řízení letového provozu České republiky
Letiste: LKCV Aktualizace: 23.08.2017 07:06:03  UTC
 METAR LKCV 23.08. 07:00 ...
METAR LKCV 230700Z VRB02KT CAVOK 13/09 Q1020 NOSIG=
 TAF LKCV 23.08. 05:00 ...
TAF LKCV 230500Z 2306/2406 VRB02KT CAVOK      TEMPO 2311/2315 05006KT SCT040=